createdAt,value
2023-04-11T00:02:00.839Z,13.50
2023-04-11T00:04:39.488Z,13.50
2023-04-11T00:07:11.412Z,13.70
2023-04-11T00:09:46.805Z,13.50
2023-04-11T00:12:22.793Z,13.50
2023-04-11T00:14:53.954Z,13.50
2023-04-11T00:17:23.898Z,13.50
2023-04-11T00:19:53.381Z,13.50
2023-04-11T00:22:24.103Z,13.50
2023-04-11T00:24:53.718Z,13.60
2023-04-11T00:27:22.101Z,13.60
2023-04-11T00:29:50.391Z,13.60
2023-04-11T00:32:18.663Z,13.60
2023-04-11T00:34:48.893Z,13.60
2023-04-11T00:37:17.761Z,13.60
2023-04-11T00:39:50.333Z,13.60
2023-04-11T00:42:20.572Z,13.60
2023-04-11T00:44:48.861Z,13.50
2023-04-11T00:47:17.223Z,13.50
2023-04-11T00:49:45.834Z,13.50
2023-04-11T00:52:14.116Z,13.50
2023-04-11T00:54:44.643Z,13.50
2023-04-11T00:57:20.228Z,13.50
2023-04-11T00:59:53.973Z,13.40
2023-04-11T01:02:25.080Z,13.50
2023-04-11T01:05:00.984Z,13.50
2023-04-11T01:07:36.996Z,13.30
2023-04-11T01:10:09.071Z,13.40
2023-04-11T01:12:43.865Z,13.40
2023-04-11T01:15:18.974Z,13.40
2023-04-11T01:17:53.152Z,13.50
2023-04-11T01:20:24.718Z,13.60
2023-04-11T01:22:53.933Z,13.40
2023-04-11T01:25:27.098Z,13.40
2023-04-11T01:27:58.101Z,13.40
2023-04-11T01:30:29.379Z,13.50
2023-04-11T01:33:07.436Z,13.40
2023-04-11T01:35:47.222Z,13.40
2023-04-11T01:38:19.081Z,13.40
2023-04-11T01:40:58.213Z,13.40
2023-04-11T01:43:32.853Z,13.30
2023-04-11T01:46:08.059Z,13.40
2023-04-11T01:48:38.901Z,13.40
2023-04-11T01:51:08.404Z,13.40
2023-04-11T01:53:36.687Z,13.40
2023-04-11T01:56:07.360Z,13.40
2023-04-11T01:58:36.249Z,13.30
2023-04-11T02:01:06.330Z,13.30
2023-04-11T02:03:34.790Z,13.30
2023-04-11T02:06:03.337Z,13.20
2023-04-11T02:08:33.914Z,13.30
2023-04-11T02:11:07.955Z,13.20
2023-04-11T02:13:36.442Z,13.20
2023-04-11T02:16:11.793Z,13.20
2023-04-11T02:18:58.887Z,13.20
2023-04-11T02:21:28.229Z,13.00
2023-04-11T02:24:06.264Z,13.20
2023-04-11T02:26:46.116Z,13.20
2023-04-11T02:29:20.941Z,13.20
2023-04-11T02:31:58.114Z,13.10
2023-04-11T02:34:43.641Z,13.00
2023-04-11T02:37:20.967Z,13.20
2023-04-11T02:39:49.991Z,13.20
2023-04-11T02:42:34.569Z,13.20
2023-04-11T02:45:14.954Z,13.20
2023-04-11T02:47:47.506Z,13.20
2023-04-11T02:50:26.434Z,13.30
2023-04-11T02:53:01.114Z,13.30
2023-04-11T02:55:33.493Z,13.30
2023-04-11T02:58:12.661Z,13.40
2023-04-11T03:00:52.796Z,13.30
2023-04-11T03:03:26.583Z,13.40
2023-04-11T03:06:05.160Z,13.40
2023-04-11T03:08:45.483Z,13.40
2023-04-11T03:11:20.337Z,13.40
2023-04-11T03:13:55.793Z,13.40
2023-04-11T03:16:24.109Z,13.40
2023-04-11T03:18:52.324Z,13.50
2023-04-11T03:21:20.827Z,13.50
2023-04-11T03:23:50.010Z,13.50
2023-04-11T03:26:19.035Z,13.50
2023-04-11T03:28:51.222Z,13.50
2023-04-11T03:31:21.415Z,13.50
2023-04-11T03:33:51.626Z,13.50
2023-04-11T03:36:19.828Z,13.60
2023-04-11T03:38:50.765Z,13.50
2023-04-11T03:41:21.112Z,13.50
2023-04-11T03:43:51.545Z,13.60
2023-04-11T03:46:21.832Z,13.50
2023-04-11T03:49:02.007Z,13.60
2023-04-11T03:51:41.243Z,13.60
2023-04-11T03:54:22.772Z,13.60
2023-04-11T03:57:03.937Z,13.60
2023-04-11T03:59:43.719Z,13.60
2023-04-11T04:02:24.204Z,13.60
2023-04-11T04:04:59.984Z,13.60
2023-04-11T04:07:43.808Z,13.60
2023-04-11T04:10:25.673Z,13.50
2023-04-11T04:12:56.318Z,13.50
2023-04-11T04:15:38.704Z,13.50
2023-04-11T04:21:21.573Z,13.50
2023-04-11T04:23:56.775Z,13.50
2023-04-11T04:26:39.845Z,13.50
2023-04-11T04:29:34.254Z,13.40
2023-04-11T04:32:13.495Z,13.50
2023-04-11T04:34:57.869Z,13.40
2023-04-11T04:40:50.591Z,13.40
2023-04-11T04:43:24.783Z,13.30
2023-04-11T04:46:15.772Z,13.30
2023-04-11T04:48:49.898Z,13.30
2023-04-11T04:51:20.505Z,13.30
2023-04-11T04:53:50.166Z,13.30
2023-04-11T04:56:18.384Z,13.30
2023-04-11T04:58:48.653Z,13.30
2023-04-11T05:01:18.701Z,13.30
2023-04-11T05:03:58.984Z,13.40
2023-04-11T05:06:41.295Z,13.30
2023-04-11T05:09:09.815Z,13.30
2023-04-11T05:11:38.053Z,13.30
2023-04-11T05:14:09.688Z,13.20
2023-04-11T05:16:43.376Z,13.20
2023-04-11T05:19:13.008Z,13.10
2023-04-11T05:21:45.378Z,13.10
2023-04-11T05:24:13.708Z,13.10
2023-04-11T05:26:41.972Z,13.10
2023-04-11T05:29:12.686Z,13.00
2023-04-11T05:31:40.886Z,13.00
2023-04-11T05:34:09.311Z,13.00
2023-04-11T05:36:39.146Z,12.90
2023-04-11T05:39:07.257Z,12.90
2023-04-11T05:41:35.555Z,13.00
2023-04-11T05:44:05.188Z,13.00
2023-04-11T05:46:37.561Z,13.00
2023-04-11T05:49:09.188Z,13.00
2023-04-11T05:51:42.095Z,13.00
2023-04-11T05:54:15.687Z,13.00
2023-04-11T05:57:02.474Z,13.00
2023-04-11T06:00:20.857Z,13.00
2023-04-11T06:10:44.230Z,12.90
2023-04-11T06:13:13.054Z,12.90
2023-04-11T06:15:57.267Z,12.90
2023-04-11T06:22:26.365Z,13.00
2023-04-11T07:08:06.758Z,12.90
2023-04-11T07:10:37.112Z,12.90
2023-04-11T07:13:21.445Z,12.80
2023-04-11T07:16:00.239Z,12.70
2023-04-11T07:18:32.672Z,12.60
2023-04-11T07:21:10.402Z,12.60
2023-04-11T07:23:46.723Z,12.50
2023-04-11T07:26:23.781Z,12.40
2023-04-11T07:29:14.361Z,12.40
2023-04-11T07:32:00.862Z,12.40
2023-04-11T07:34:36.004Z,12.30
2023-04-11T07:37:12.862Z,12.20
2023-04-11T07:39:52.744Z,12.20
2023-04-11T07:42:26.746Z,12.20
2023-04-11T07:44:58.767Z,12.20
2023-04-11T07:47:40.621Z,12.20
2023-04-11T07:50:12.364Z,12.10
2023-04-11T07:53:13.019Z,12.30
2023-04-11T07:55:53.252Z,12.30
2023-04-11T07:58:22.401Z,12.40
2023-04-11T08:00:56.949Z,12.40
2023-04-11T08:03:34.877Z,12.50
2023-04-11T08:06:08.466Z,12.50
2023-04-11T08:08:41.487Z,12.50
2023-04-11T08:11:20.275Z,12.70
2023-04-11T08:14:05.524Z,12.70
2023-04-11T08:17:03.273Z,12.80
2023-04-11T08:19:46.828Z,12.80
2023-04-11T08:22:59.605Z,12.80
2023-04-11T08:29:41.605Z,12.90
2023-04-11T08:32:38.741Z,13.00
2023-04-11T08:35:41.821Z,13.10
2023-04-11T08:41:33.224Z,13.20
2023-04-11T08:44:20.820Z,13.20
2023-04-11T08:47:04.372Z,13.40
2023-04-11T08:49:40.294Z,13.40
2023-04-11T08:52:45.287Z,13.40
2023-04-11T08:58:10.686Z,13.30
2023-04-11T09:00:49.036Z,13.20
2023-04-11T09:03:24.154Z,13.20
2023-04-11T09:05:52.875Z,13.10
2023-04-11T09:08:23.712Z,13.00
2023-04-11T09:11:12.134Z,13.00
2023-04-11T09:18:09.798Z,12.60
2023-04-11T09:21:26.903Z,12.60
2023-04-11T09:24:37.316Z,12.80
2023-04-11T09:42:56.980Z,13.20
2023-04-11T09:45:32.271Z,13.30
2023-04-11T09:57:18.571Z,14.10
2023-04-11T10:00:36.715Z,14.40
2023-04-11T10:03:25.590Z,14.60
2023-04-11T10:07:39.854Z,14.70
2023-04-11T10:10:09.143Z,14.80
2023-04-11T10:17:57.166Z,15.20
2023-04-11T10:20:50.614Z,15.50
2023-04-11T10:23:19.173Z,15.60
2023-04-11T10:25:59.182Z,15.70
2023-04-11T10:28:48.361Z,15.70
2023-04-11T10:31:47.133Z,15.70
2023-04-11T10:34:17.930Z,15.60
2023-04-11T10:37:15.238Z,15.70
2023-04-11T10:40:19.547Z,15.60
2023-04-11T10:42:55.043Z,15.80
2023-04-11T10:45:39.935Z,15.80
2023-04-11T10:48:25.683Z,16.00
2023-04-11T10:50:58.319Z,16.10
2023-04-11T10:53:55.461Z,16.30
2023-04-11T10:57:01.167Z,16.40
2023-04-11T11:00:16.365Z,16.40
2023-04-11T11:02:53.115Z,16.20
2023-04-11T11:13:43.225Z,13.20
2023-04-11T11:32:21.607Z,11.90
2023-04-11T12:12:26.787Z,10.70
2023-04-11T12:18:37.154Z,12.30
2023-04-11T12:30:11.173Z,17.50
2023-04-11T12:32:53.689Z,18.70
2023-04-11T12:35:28.480Z,19.80
2023-04-11T12:37:57.302Z,21.60
2023-04-11T12:40:30.365Z,22.70
2023-04-11T12:43:22.249Z,22.80
2023-04-11T12:45:57.781Z,22.30
2023-04-11T12:49:07.434Z,22.20
2023-04-11T12:51:36.179Z,22.20
2023-04-11T12:54:08.073Z,22.40
2023-04-11T12:56:36.813Z,22.60
2023-04-11T12:59:05.164Z,22.40
2023-04-11T13:01:33.655Z,22.00
2023-04-11T13:07:01.919Z,21.00
2023-04-11T13:12:48.085Z,20.20
2023-04-11T13:15:38.846Z,20.20
2023-04-11T13:21:21.805Z,19.60
2023-04-11T13:24:00.013Z,18.90
2023-04-11T13:26:34.315Z,18.30
2023-04-11T13:29:11.678Z,17.90
2023-04-11T13:31:55.161Z,17.60
2023-04-11T13:34:32.869Z,17.50
2023-04-11T13:37:07.327Z,17.60
2023-04-11T13:39:53.843Z,17.30
2023-04-11T13:42:55.997Z,17.40
2023-04-11T13:46:09.184Z,17.10
2023-04-11T14:03:44.554Z,16.90
2023-04-11T14:13:48.342Z,16.20
2023-04-11T14:16:17.348Z,15.80
2023-04-11T14:19:02.462Z,15.60
2023-04-11T14:21:40.620Z,15.60
2023-04-11T15:39:51.441Z,12.40
2023-04-11T15:42:26.728Z,12.40
2023-04-11T15:45:09.192Z,12.80
2023-04-11T15:47:39.159Z,13.30
2023-04-11T15:50:08.579Z,13.90
2023-04-11T15:52:37.454Z,14.40
2023-04-11T15:55:09.423Z,15.00
2023-04-11T15:57:51.008Z,15.60
2023-04-11T16:00:26.629Z,15.90
2023-04-11T16:03:15.364Z,16.00
2023-04-11T16:05:47.390Z,15.80
2023-04-11T16:08:24.779Z,15.70
2023-04-11T16:10:55.505Z,15.40
2023-04-11T16:13:24.039Z,15.20
2023-04-11T16:15:52.795Z,15.00
2023-04-11T16:18:26.278Z,14.90
2023-04-11T16:20:57.008Z,14.70
2023-04-11T16:23:28.680Z,14.60
2023-04-11T16:25:58.700Z,14.40
2023-04-11T16:28:27.032Z,14.30
2023-04-11T16:30:58.593Z,14.30
2023-04-11T16:33:27.329Z,14.30
2023-04-11T16:35:55.829Z,14.40
2023-04-11T16:38:25.595Z,14.40
2023-04-11T16:40:54.471Z,14.40
2023-04-11T16:43:41.194Z,14.40
2023-04-11T16:46:14.384Z,14.30
2023-04-11T16:48:44.105Z,14.20
2023-04-11T16:51:16.161Z,14.10
2023-04-11T16:53:46.186Z,14.00
2023-04-11T16:56:15.026Z,14.00
2023-04-11T16:58:45.472Z,13.90
2023-04-11T17:01:14.426Z,14.00
2023-04-11T17:03:44.339Z,14.40
2023-04-11T17:06:14.750Z,14.90
2023-04-11T17:08:44.397Z,15.20
2023-04-11T17:11:14.297Z,15.30
2023-04-11T17:13:45.946Z,15.30
2023-04-11T17:16:14.657Z,15.20
2023-04-11T17:18:43.136Z,15.10
2023-04-11T17:21:11.447Z,15.00
2023-04-11T17:23:43.326Z,14.90
2023-04-11T17:26:12.466Z,14.70
2023-04-11T17:28:41.234Z,14.50
2023-04-11T17:31:15.235Z,14.30
2023-04-11T17:33:44.200Z,14.10
2023-04-11T17:36:14.706Z,14.00
2023-04-11T17:38:43.884Z,13.70
2023-04-11T17:41:15.365Z,13.60
2023-04-11T17:43:44.531Z,13.40
2023-04-11T17:46:14.716Z,13.30
2023-04-11T17:48:45.109Z,13.10
2023-04-11T17:51:14.409Z,12.90
2023-04-11T17:53:44.005Z,12.80
2023-04-11T17:56:12.650Z,12.60
2023-04-11T17:58:44.727Z,12.70
2023-04-11T18:01:32.793Z,12.50
2023-04-11T18:04:07.711Z,12.40
2023-04-11T18:06:36.182Z,12.40
2023-04-11T18:09:05.877Z,12.30
2023-04-11T18:11:34.343Z,12.20
2023-04-11T18:14:04.955Z,12.10
2023-04-11T18:16:35.846Z,12.10
2023-04-11T18:19:04.440Z,12.00
2023-04-11T18:21:32.705Z,12.00
2023-04-11T18:24:01.220Z,12.00
2023-04-11T18:26:33.464Z,11.90
2023-04-11T18:29:12.750Z,11.90
2023-04-11T18:31:46.242Z,11.80
2023-04-11T18:34:14.721Z,11.80
2023-04-11T18:37:23.746Z,11.70
2023-04-11T18:39:52.682Z,11.60
2023-04-11T18:42:21.177Z,11.50
2023-04-11T18:44:50.443Z,11.50
2023-04-11T18:47:45.016Z,11.40
2023-04-11T18:50:14.003Z,11.50
2023-04-11T18:52:43.710Z,11.40
2023-04-11T18:55:18.529Z,11.40
2023-04-11T18:57:48.880Z,11.50
2023-04-11T19:00:19.480Z,11.50
2023-04-11T19:02:54.898Z,11.40
2023-04-11T19:05:25.502Z,11.20
2023-04-11T19:07:54.073Z,11.00
2023-04-11T19:10:41.261Z,10.70
2023-04-11T19:13:12.062Z,10.60
2023-04-11T19:15:44.943Z,10.40
2023-04-11T19:18:14.995Z,10.30
2023-04-11T19:20:46.589Z,10.20
2023-04-11T19:23:16.055Z,10.10
2023-04-11T19:25:46.597Z,10.10
2023-04-11T19:28:22.572Z,10.10
2023-04-11T19:30:51.332Z,10.10
2023-04-11T19:33:47.468Z,9.90
2023-04-11T19:36:15.992Z,10.00
2023-04-11T19:38:44.374Z,10.00
2023-04-11T19:41:14.032Z,10.00
2023-04-11T19:43:50.078Z,10.00
2023-04-11T19:46:19.120Z,10.00
2023-04-11T19:48:49.012Z,9.90
2023-04-11T19:51:19.544Z,9.90
2023-04-11T19:53:50.507Z,9.80
2023-04-11T19:56:18.728Z,9.70
2023-04-11T19:58:50.010Z,9.70
2023-04-11T20:01:18.774Z,9.60
2023-04-11T20:03:53.684Z,9.70
2023-04-11T20:06:22.749Z,9.60
2023-04-11T20:08:51.165Z,9.60
2023-04-11T20:11:22.041Z,9.60
2023-04-11T20:13:50.276Z,9.60
2023-04-11T20:19:06.811Z,9.50
2023-04-11T20:21:35.435Z,9.40
2023-04-11T20:24:04.182Z,9.40
2023-04-11T20:26:44.489Z,9.30
2023-04-11T20:29:21.080Z,9.30
2023-04-11T20:31:56.912Z,9.30
2023-04-11T20:38:56.256Z,9.20
2023-04-11T20:41:47.458Z,9.00
2023-04-11T20:44:33.002Z,9.10
2023-04-11T20:47:03.762Z,9.00
2023-04-11T20:49:39.578Z,9.00
2023-04-11T20:52:09.084Z,9.00
2023-04-11T20:54:42.424Z,8.90
2023-04-11T20:57:30.484Z,8.90
2023-04-11T20:59:59.673Z,8.90
2023-04-11T21:02:35.055Z,8.80
2023-04-11T21:05:08.936Z,8.80
2023-04-11T21:07:45.679Z,8.80
2023-04-11T21:10:22.875Z,8.70
2023-04-11T21:12:56.185Z,8.70
2023-04-11T21:18:09.917Z,8.60
2023-04-11T21:21:01.210Z,8.60
2023-04-11T21:31:59.933Z,8.60
2023-04-11T21:34:28.855Z,8.50
2023-04-11T21:37:02.635Z,8.40
2023-04-11T21:39:31.841Z,8.40
2023-04-11T21:42:02.024Z,8.40
2023-04-11T21:44:40.361Z,8.40
2023-04-11T21:47:10.845Z,8.40
2023-04-11T21:49:40.428Z,8.40
2023-04-11T21:52:12.025Z,8.30
2023-04-11T21:54:40.378Z,8.30
2023-04-11T21:57:11.320Z,8.20
2023-04-11T21:59:51.507Z,8.10
2023-04-11T22:02:25.906Z,8.10
2023-04-11T22:05:06.347Z,8.10
2023-04-11T22:07:42.196Z,7.90
2023-04-11T22:10:17.384Z,7.90
2023-04-11T22:12:49.682Z,7.80
2023-04-11T22:15:20.003Z,7.90
2023-04-11T22:17:51.079Z,7.80
2023-04-11T22:20:21.109Z,7.70
2023-04-11T22:22:49.605Z,7.70
2023-04-11T22:25:18.659Z,7.60
2023-04-11T22:27:49.060Z,7.60
2023-04-11T22:30:17.963Z,7.50
2023-04-11T22:32:51.710Z,7.50
2023-04-11T22:35:22.750Z,7.40
2023-04-11T22:37:54.491Z,7.40
2023-04-11T22:40:23.263Z,7.40
2023-04-11T22:42:52.224Z,7.40
2023-04-11T22:45:24.522Z,7.50
2023-04-11T22:47:57.004Z,7.30
2023-04-11T22:50:28.559Z,7.20
2023-04-11T22:53:00.890Z,7.20
2023-04-11T22:55:29.383Z,7.10
2023-04-11T22:57:57.583Z,7.40
2023-04-11T23:00:26.414Z,7.10
2023-04-11T23:02:56.923Z,7.00
2023-04-11T23:05:25.873Z,7.00
2023-04-11T23:07:54.673Z,7.00
2023-04-11T23:10:30.141Z,6.90
2023-04-11T23:13:03.944Z,6.80
2023-04-11T23:15:32.976Z,6.80
2023-04-11T23:18:10.345Z,6.80
2023-04-11T23:20:39.029Z,6.80
2023-04-11T23:23:07.570Z,6.70
2023-04-11T23:25:40.877Z,6.70
2023-04-11T23:28:09.461Z,6.70
2023-04-11T23:30:41.956Z,6.70
2023-04-11T23:33:11.704Z,6.70
2023-04-11T23:35:43.596Z,6.60
2023-04-11T23:38:18.818Z,6.70
2023-04-11T23:40:50.737Z,6.70
2023-04-11T23:43:29.335Z,6.70
2023-04-11T23:46:41.362Z,6.70
2023-04-11T23:51:56.602Z,6.60
2023-04-11T23:54:30.022Z,6.60
2023-04-11T23:57:01.617Z,6.60
2023-04-11T23:59:30.005Z,6.80
